Due to severe server failure at the provider, not all demo sites are operational. Will take some days to rebuilt everything.

Demonstration site - Click on the  for more information

This is an optional block. Switch it on/off in your settings-file: $SITE['bannerTop'] = false; or $SITE['bannerBottom'] = false;

You can display ads, any other important text or photo’s using text / html or PHP code.

You can place one or more at the top and or bottom and it can all be different for content / size .



Visit our other weather sites:

Template documentation
and downloads

And another site



Nearby METAR Reports

   
EBAW - Antwerp
Updated: 05-06-2020 10:50
Light Showers, Rain, Mostly Cloudy  
Light Showers, Rain, Mostly Cloudy  
   Wind: SSW 25.9 km/h
Wind: SSW 25.9 km/h
Temperature: 13°C
Dew Point: 10°C
Humidity: 82%
Barometer: 992 hPa
Clouds: Mostly Cloudy
Visibility: More than 10 km
Cloud details: Mostly Cloudy 1800 ft
EBAW 050850Z 21014KT 9999 -SHRA BKN018 13/10 Q0992 TEMPO 29017G28KT 4000 SHRA BKN012CB
EBLG - Liège
Updated: 05-06-2020 10:50
Light Rain, Mostly Cloudy  
Light Rain, Mostly Cloudy  
   Wind: SSW 25.9 km/h
Wind: SSW 25.9 km/h
Temperature: 11°C
Dew Point: 8°C
Humidity: 82%
Barometer: 995 hPa
Clouds: Mostly Cloudy
Visibility: More than 10 km
Cloud details: Partly Cloudy 1500 ft,
Mostly Cloudy 1800 ft
EBLG 050850Z 21014KT 9999 -RA SCT015 BKN018 11/08 Q0995 TEMPO 4000 RADZ
EBCV - Mons/Bergen
Updated: 05-06-2020 10:55
Heavy Rain, Overcast  
Heavy Rain, Overcast  
   Wind: SSW 25.9 km/h
Wind: SSW 25.9 km/h
Temperature: 11°C
Dew Point: 10°C
Humidity: 94%
Barometer: 994 hPa
Clouds: Overcast
Visibility: 7 km
Cloud details: Overcast 900 ft
EBCV 050855Z AUTO 21014KT 7000 +RA OVC009/// 11/10 Q0994 GRN
EHBK - Maastricht
Updated: 05-06-2020 10:55
Overcast  
Overcast  
   Wind: SSW 22.2 km/h
Wind: SSW 22.2 km/h
Temperature: 12°C
Dew Point: 10°C
Humidity: 88%
Barometer: 994 hPa
Clouds: Overcast
Visibility: More than 10 km
Cloud details: Few Clouds 1300 ft,
Few Clouds 1500 ft,
Mostly Cloudy 1600 ft,
Overcast 2000 ft
EHBK 050855Z AUTO 20012KT 170V230 9999 FEW013 FEW015CB BKN016 OVC020 12/10 Q0994 TEMPO 6000 SHRA
ELLX - Luxemburg
Updated: 05-06-2020 10:50
Mostly Cloudy  
Mostly Cloudy  
   Wind: SW 24.1 km/h
Wind: SW 24.1 km/h
Temperature: 11°C
Dew Point: 6°C
Humidity: 72%
Barometer: 998 hPa
Clouds: Mostly Cloudy
Visibility: More than 10 km
Cloud details: Mostly Cloudy 2200 ft
ELLX 050850Z 23013KT 200V260 9999 BKN022 11/06 Q0998 NOSIG
EBOS - Oostende
Updated: 05-06-2020 10:50
Mostly Cloudy  
Mostly Cloudy  
   Wind: WNW 35.2 km/h
Wind: WNW 35.2 km/h
Temperature: 13°C
Dew Point: 7°C
Humidity: 67%
Barometer: 993 hPa
Clouds: Mostly Cloudy
Visibility: More than 10 km
Cloud details: Partly Cloudy 2000 ft,
Mostly Cloudy 4400 ft
EBOS 050850Z 29019KT 9999 SCT020 BKN044 13/07 Q0993 BECMG 29020G30KT

Script developed by  Saratoga-weather.org Adapted for the template by  Weerstation Leuven

This is an optional block. Switch it on/off in your settings-file: $SITE['bannerTop'] = false; or $SITE['bannerBottom'] = false;

You can display ads, any other important text or photo’s using text / html or PHP code.

You can place one or more at the top and or bottom and it can all be different for content / size .